createdAt,value
2019-05-06T00:02:25.801Z,96.48
2019-05-06T00:04:56.660Z,96.39
2019-05-06T00:07:29.480Z,96.12
2019-05-06T00:09:59.994Z,95.89
2019-05-06T00:12:33.498Z,95.42
2019-05-06T00:15:04.387Z,95.36
2019-05-06T00:17:35.517Z,95.47
2019-05-06T00:20:10.276Z,95.08
2019-05-06T00:22:44.595Z,95.33
2019-05-06T00:25:19.294Z,95.67
2019-05-06T00:28:07.170Z,95.99
2019-05-06T00:30:38.253Z,95.48
2019-05-06T00:33:09.832Z,95.59
2019-05-06T00:35:41.627Z,95.69
2019-05-06T00:38:13.894Z,95.66
2019-05-06T00:40:46.256Z,95.87
2019-05-06T00:43:16.739Z,96.47
2019-05-06T00:45:47.207Z,97.14
2019-05-06T00:48:17.918Z,97.21
2019-05-06T00:50:53.571Z,97.73
2019-05-06T00:53:25.902Z,98.06
2019-05-06T00:55:56.407Z,97.79
2019-05-06T00:58:27.098Z,97.78
2019-05-06T01:00:57.461Z,97.29
2019-05-06T01:03:47.060Z,97.39
2019-05-06T01:06:17.598Z,97.50
2019-05-06T01:08:48.076Z,97.62
2019-05-06T01:11:18.554Z,97.77
2019-05-06T01:14:07.152Z,97.48
2019-05-06T01:16:38.056Z,97.41
2019-05-06T01:19:08.505Z,97.44
2019-05-06T01:21:39.019Z,97.14
2019-05-06T01:24:09.454Z,97.39
2019-05-06T01:26:39.935Z,96.92
2019-05-06T01:29:14.391Z,96.86
2019-05-06T01:31:46.072Z,96.59
2019-05-06T01:34:16.672Z,96.56
2019-05-06T01:36:56.084Z,96.53
2019-05-06T01:39:44.276Z,96.45
2019-05-06T01:42:24.633Z,96.24
2019-05-06T01:44:55.566Z,96.85
2019-05-06T01:47:26.030Z,96.84
2019-05-06T01:49:58.654Z,96.75
2019-05-06T01:52:29.259Z,96.99
2019-05-06T01:54:59.969Z,97.10
2019-05-06T01:57:30.477Z,96.87
2019-05-06T02:00:01.417Z,97.04
2019-05-06T02:02:37.475Z,97.54
2019-05-06T02:05:09.167Z,97.64
2019-05-06T02:07:39.569Z,98.18
2019-05-06T02:10:10.044Z,98.75
2019-05-06T02:12:40.487Z,98.86
2019-05-06T02:15:10.951Z,99.18
2019-05-06T02:17:55.122Z,99.66
2019-05-06T02:20:25.834Z,99.97
2019-05-06T02:23:08.567Z,99.79
2019-05-06T02:25:45.743Z,99.55
2019-05-06T02:28:18.271Z,99.35
2019-05-06T02:31:08.092Z,99.28
2019-05-06T02:34:06.453Z,99.22
2019-05-06T02:36:58.614Z,98.79
2019-05-06T02:39:29.121Z,98.65
2019-05-06T02:41:59.668Z,98.62
2019-05-06T02:44:44.116Z,98.55
2019-05-06T02:47:34.201Z,98.74
2019-05-06T02:50:05.953Z,99.02
2019-05-06T02:52:36.758Z,99.22
2019-05-06T02:55:07.764Z,99.67
2019-05-06T02:57:39.309Z,99.84
2019-05-06T03:00:13.971Z,99.85
2019-05-06T03:02:47.951Z,99.67
2019-05-06T03:05:19.302Z,99.50
2019-05-06T03:07:49.869Z,99.43
2019-05-06T03:10:24.343Z,99.37
2019-05-06T03:12:54.142Z,99.35
2019-05-06T03:15:24.744Z,99.44
2019-05-06T03:17:55.607Z,99.29
2019-05-06T03:20:54.827Z,99.63
2019-05-06T03:23:27.431Z,99.83
2019-05-06T03:25:59.279Z,99.73
2019-05-06T03:28:33.453Z,99.74
2019-05-06T03:31:06.859Z,99.50
2019-05-06T03:33:59.769Z,99.77
2019-05-06T03:36:25.003Z,99.78
2019-05-06T03:38:47.703Z,100.00
2019-05-06T03:41:18.172Z,100.00
2019-05-06T03:43:48.749Z,100.00
2019-05-06T03:46:42.989Z,100.00
2019-05-06T03:49:15.455Z,100.00
2019-05-06T03:51:46.229Z,100.00
2019-05-06T03:54:16.734Z,100.00
2019-05-06T03:56:47.333Z,100.00
2019-05-06T03:59:18.465Z,99.92
2019-05-06T04:01:53.318Z,99.97
2019-05-06T04:04:24.192Z,100.00
2019-05-06T04:06:55.221Z,99.58
2019-05-06T04:09:25.676Z,99.75
2019-05-06T04:12:03.652Z,99.82
2019-05-06T04:14:34.650Z,99.83
2019-05-06T04:17:16.507Z,100.00
2019-05-06T04:19:53.404Z,99.59
2019-05-06T04:22:55.049Z,99.64
2019-05-06T04:25:43.642Z,99.99
2019-05-06T04:28:19.928Z,100.00
2019-05-06T04:30:50.764Z,100.00
2019-05-06T04:33:23.688Z,100.00
2019-05-06T04:35:54.256Z,100.00
2019-05-06T04:38:38.588Z,100.00
2019-05-06T04:41:14.718Z,100.00
2019-05-06T04:43:45.229Z,100.00
2019-05-06T04:46:16.878Z,100.00
2019-05-06T04:48:48.086Z,100.00
2019-05-06T04:51:18.889Z,100.00
2019-05-06T04:53:55.453Z,100.00
2019-05-06T04:56:29.455Z,100.00
2019-05-06T04:59:06.289Z,100.00
2019-05-06T05:01:35.860Z,100.00
2019-05-06T05:04:22.980Z,100.00
2019-05-06T05:06:39.826Z,100.00
2019-05-06T05:09:17.326Z,100.00
2019-05-06T05:11:53.411Z,99.97
2019-05-06T05:14:32.782Z,98.95
2019-05-06T05:17:09.209Z,98.08
2019-05-06T05:19:42.867Z,99.05
2019-05-06T05:22:13.841Z,98.56
2019-05-06T05:24:44.248Z,97.95
2019-05-06T05:27:14.742Z,97.54
2019-05-06T05:29:46.183Z,97.31
2019-05-06T05:32:16.843Z,98.41
2019-05-06T05:34:48.615Z,98.50
2019-05-06T05:37:22.783Z,98.11
2019-05-06T05:39:53.896Z,96.85
2019-05-06T05:42:49.635Z,96.50
2019-05-06T05:45:22.174Z,91.77
2019-05-06T05:47:54.931Z,91.22
2019-05-06T05:50:32.490Z,90.08
2019-05-06T05:53:04.640Z,88.76
2019-05-06T05:55:35.222Z,87.59
2019-05-06T05:58:16.335Z,85.05
2019-05-06T06:00:48.636Z,86.04
2019-05-06T06:03:22.062Z,86.55
2019-05-06T06:05:56.646Z,88.36
2019-05-06T06:08:27.447Z,85.46
2019-05-06T06:11:08.089Z,84.75
2019-05-06T06:13:39.112Z,84.22
2019-05-06T06:16:38.666Z,83.84
2019-05-06T06:19:26.737Z,81.46
2019-05-06T06:22:03.721Z,82.10
2019-05-06T06:24:35.943Z,81.17
2019-05-06T06:27:07.097Z,85.41
2019-05-06T06:29:39.196Z,79.44
2019-05-06T06:32:14.573Z,79.72
2019-05-06T06:35:14.724Z,78.94
2019-05-06T06:38:23.868Z,77.96
2019-05-06T06:40:57.266Z,76.96
2019-05-06T06:43:27.807Z,76.18
2019-05-06T06:45:58.283Z,78.62
2019-05-06T06:48:28.695Z,79.02
2019-05-06T06:50:59.372Z,77.20
2019-05-06T06:53:29.881Z,74.07
2019-05-06T06:56:29.652Z,72.21
2019-05-06T06:59:22.720Z,72.34
2019-05-06T07:02:12.677Z,70.88
2019-05-06T07:04:49.056Z,73.70
2019-05-06T07:07:22.709Z,71.95
2019-05-06T07:09:55.622Z,73.93
2019-05-06T07:12:32.889Z,74.18
2019-05-06T07:15:03.850Z,70.59
2019-05-06T07:17:37.580Z,70.75
2019-05-06T07:20:13.096Z,69.12
2019-05-06T07:22:43.849Z,68.47
2019-05-06T07:25:15.129Z,68.53
2019-05-06T07:27:45.864Z,67.53
2019-05-06T07:30:18.271Z,67.35
2019-05-06T07:32:48.899Z,68.78
2019-05-06T07:35:19.821Z,67.59
2019-05-06T07:37:53.002Z,66.58
2019-05-06T07:40:26.964Z,64.42
2019-05-06T07:42:59.068Z,63.21
2019-05-06T07:45:43.284Z,65.76
2019-05-06T07:48:16.995Z,63.78
2019-05-06T07:50:49.334Z,62.96
2019-05-06T07:53:19.822Z,62.86
2019-05-06T07:55:52.494Z,65.38
2019-05-06T07:58:32.237Z,64.07
2019-05-06T08:01:06.398Z,63.24
2019-05-06T08:03:42.613Z,64.81
2019-05-06T08:06:13.209Z,64.52
2019-05-06T08:08:43.931Z,64.77
2019-05-06T08:11:22.277Z,63.28
2019-05-06T08:13:53.075Z,64.49
2019-05-06T08:16:24.454Z,65.12
2019-05-06T08:18:55.095Z,64.40
2019-05-06T08:21:27.167Z,61.47
2019-05-06T08:24:03.076Z,61.81
2019-05-06T08:26:33.552Z,60.74
2019-05-06T08:29:03.986Z,57.05
2019-05-06T08:31:34.439Z,58.21
2019-05-06T08:34:04.926Z,55.32
2019-05-06T08:36:58.407Z,56.07
2019-05-06T08:39:32.657Z,56.63
2019-05-06T08:42:03.494Z,58.24
2019-05-06T08:44:49.743Z,57.25
2019-05-06T08:47:22.224Z,58.93
2019-05-06T08:50:27.317Z,58.67
2019-05-06T08:53:18.939Z,58.85
2019-05-06T08:55:53.136Z,58.69
2019-05-06T08:58:47.538Z,58.14
2019-05-06T09:01:43.771Z,56.46
2019-05-06T09:04:16.298Z,55.61
2019-05-06T09:06:48.868Z,53.87
2019-05-06T09:09:27.005Z,53.49
2019-05-06T09:11:57.451Z,55.12
2019-05-06T09:14:28.388Z,53.87
2019-05-06T09:17:03.102Z,53.76
2019-05-06T09:19:34.049Z,53.84
2019-05-06T09:22:04.986Z,55.04
2019-05-06T09:24:42.647Z,53.67
2019-05-06T09:27:22.583Z,54.08
2019-05-06T09:29:59.423Z,54.14
2019-05-06T09:32:36.220Z,52.64
2019-05-06T09:35:07.505Z,52.87
2019-05-06T09:37:43.066Z,53.82
2019-05-06T09:40:13.614Z,55.92
2019-05-06T09:42:44.090Z,54.80
2019-05-06T09:45:14.924Z,54.77
2019-05-06T09:48:04.126Z,56.00
2019-05-06T09:50:49.028Z,56.61
2019-05-06T09:56:39.269Z,55.80
2019-05-06T09:59:09.892Z,57.86
2019-05-06T10:01:43.707Z,54.93
2019-05-06T10:04:17.082Z,55.42
2019-05-06T10:06:57.097Z,53.15
2019-05-06T10:09:26.947Z,51.50
2019-05-06T10:11:57.782Z,51.70
2019-05-06T10:14:28.258Z,52.52
2019-05-06T10:17:04.425Z,54.31
2019-05-06T10:19:33.734Z,54.59
2019-05-06T10:22:04.284Z,51.82
2019-05-06T10:24:34.903Z,52.26
2019-05-06T10:27:05.593Z,53.03
2019-05-06T10:29:49.432Z,50.65
2019-05-06T10:32:42.662Z,53.72
2019-05-06T10:35:14.309Z,51.72
2019-05-06T10:38:12.764Z,50.58
2019-05-06T10:41:00.912Z,51.02
2019-05-06T10:43:52.416Z,49.45
2019-05-06T10:46:25.126Z,46.92
2019-05-06T10:48:55.762Z,48.66
2019-05-06T10:51:32.487Z,49.79
2019-05-06T10:54:03.339Z,46.14
2019-05-06T10:56:57.561Z,45.58
2019-05-06T10:59:29.661Z,44.95
2019-05-06T11:02:06.558Z,46.25
2019-05-06T11:04:38.300Z,42.00
2019-05-06T11:07:28.206Z,42.02
2019-05-06T11:09:49.628Z,41.47
2019-05-06T11:12:24.370Z,43.23
2019-05-06T11:14:57.736Z,43.35
2019-05-06T11:17:28.777Z,43.27
2019-05-06T11:20:19.324Z,44.54
2019-05-06T11:22:52.684Z,45.15
2019-05-06T11:25:26.354Z,46.72
2019-05-06T11:28:02.957Z,47.61
2019-05-06T11:30:56.800Z,43.58
2019-05-06T11:33:57.144Z,46.62
2019-05-06T11:36:37.986Z,43.94
2019-05-06T11:39:09.688Z,43.43
2019-05-06T11:41:49.427Z,42.68
2019-05-06T11:44:12.929Z,44.19
2019-05-06T11:46:43.595Z,44.49
2019-05-06T11:49:23.555Z,44.04
2019-05-06T11:51:56.346Z,42.91
2019-05-06T11:54:27.048Z,44.54
2019-05-06T11:57:13.054Z,43.25
2019-05-06T11:59:45.080Z,43.02
2019-05-06T12:02:18.931Z,42.25
2019-05-06T12:04:52.581Z,41.91
2019-05-06T12:07:25.693Z,41.82
2019-05-06T12:09:56.171Z,41.63
2019-05-06T12:12:26.607Z,43.06
2019-05-06T12:15:03.606Z,42.77
2019-05-06T12:17:36.142Z,43.22
2019-05-06T12:20:06.904Z,44.37
2019-05-06T12:22:37.303Z,42.25
2019-05-06T12:25:14.388Z,43.26
2019-05-06T12:27:52.707Z,44.18
2019-05-06T12:30:24.764Z,43.50
2019-05-06T12:33:14.133Z,44.75
2019-05-06T12:35:48.125Z,45.70
2019-05-06T12:38:32.986Z,45.45
2019-05-06T12:41:03.739Z,45.94
2019-05-06T12:43:43.197Z,45.52
2019-05-06T12:46:27.603Z,46.39
2019-05-06T12:49:03.137Z,46.58
2019-05-06T12:51:37.972Z,46.62
2019-05-06T12:54:09.901Z,46.70
2019-05-06T12:56:42.072Z,47.90
2019-05-06T12:59:13.078Z,47.25
2019-05-06T13:01:45.423Z,48.18
2019-05-06T13:04:15.760Z,48.54
2019-05-06T13:07:07.136Z,47.49
2019-05-06T13:09:42.501Z,48.60
2019-05-06T13:12:14.643Z,47.26
2019-05-06T13:14:47.892Z,46.58
2019-05-06T13:17:25.132Z,47.38
2019-05-06T13:19:57.271Z,47.67
2019-05-06T13:22:55.590Z,47.04
2019-05-06T13:25:32.852Z,44.74
2019-05-06T13:28:07.064Z,44.98
2019-05-06T13:30:43.184Z,44.28
2019-05-06T13:33:34.160Z,43.79
2019-05-06T13:36:13.214Z,45.19
2019-05-06T13:38:43.278Z,42.71
2019-05-06T13:41:15.977Z,41.10
2019-05-06T13:43:54.042Z,41.14
2019-05-06T13:46:36.744Z,44.76
2019-05-06T13:49:30.643Z,45.51
2019-05-06T13:52:04.631Z,46.19
2019-05-06T13:54:39.461Z,45.89
2019-05-06T13:57:12.488Z,47.14
2019-05-06T13:59:44.108Z,48.29
2019-05-06T14:02:43.663Z,48.02
2019-05-06T14:05:14.231Z,48.67
2019-05-06T14:07:45.449Z,46.54
2019-05-06T14:10:22.637Z,48.74
2019-05-06T14:12:56.335Z,47.72
2019-05-06T14:15:27.099Z,46.46
2019-05-06T14:18:02.536Z,45.33
2019-05-06T14:20:33.703Z,44.95
2019-05-06T14:23:05.388Z,44.85
2019-05-06T14:25:53.888Z,43.60
2019-05-06T14:28:32.857Z,44.63
2019-05-06T14:31:10.546Z,45.87
2019-05-06T14:33:42.812Z,45.44
2019-05-06T14:36:18.465Z,45.89
2019-05-06T14:38:56.801Z,45.40
2019-05-06T14:41:32.567Z,46.70
2019-05-06T14:44:05.236Z,46.68
2019-05-06T14:47:08.652Z,45.18
2019-05-06T14:49:43.245Z,43.63
2019-05-06T14:52:23.095Z,44.16
2019-05-06T14:55:17.471Z,44.62
2019-05-06T14:57:50.873Z,44.36
2019-05-06T15:00:31.981Z,45.90
2019-05-06T15:03:02.922Z,45.85
2019-05-06T15:05:36.546Z,46.09
2019-05-06T15:08:09.895Z,46.78
2019-05-06T15:10:40.329Z,46.69
2019-05-06T15:13:12.731Z,45.48
2019-05-06T15:15:48.886Z,46.03
2019-05-06T15:18:19.440Z,45.88
2019-05-06T15:20:50.154Z,46.20
2019-05-06T15:23:22.405Z,45.69
2019-05-06T15:25:56.418Z,46.56
2019-05-06T15:28:26.833Z,46.82
2019-05-06T15:31:05.348Z,46.09
2019-05-06T15:33:41.699Z,47.51
2019-05-06T15:36:22.211Z,47.65
2019-05-06T15:38:52.780Z,47.43
2019-05-06T15:41:43.160Z,47.03
2019-05-06T15:44:19.321Z,48.42
2019-05-06T15:46:56.918Z,46.55
2019-05-06T15:49:28.135Z,47.68
2019-05-06T15:51:59.099Z,46.23
2019-05-06T15:54:34.874Z,46.60
2019-05-06T15:57:11.438Z,44.93
2019-05-06T15:59:44.543Z,45.52
2019-05-06T16:02:14.455Z,44.35
2019-05-06T16:04:48.579Z,45.46
2019-05-06T16:07:25.265Z,45.70
2019-05-06T16:09:57.306Z,45.13
2019-05-06T16:12:29.211Z,45.93
2019-05-06T16:15:03.163Z,46.29
2019-05-06T16:17:34.214Z,46.16
2019-05-06T16:20:12.821Z,46.32
2019-05-06T16:22:45.905Z,45.93
2019-05-06T16:25:16.713Z,46.78
2019-05-06T16:27:55.731Z,47.36
2019-05-06T16:30:26.217Z,46.88
2019-05-06T16:32:56.885Z,48.02
2019-05-06T16:35:32.677Z,47.11
2019-05-06T16:38:03.238Z,47.83
2019-05-06T16:40:37.643Z,49.27
2019-05-06T16:43:09.481Z,48.41
2019-05-06T16:45:39.982Z,47.99
2019-05-06T16:48:12.857Z,48.04
2019-05-06T16:50:46.298Z,48.12
2019-05-06T16:53:19.834Z,48.02
2019-05-06T16:56:13.587Z,48.37
2019-05-06T16:58:48.091Z,49.04
2019-05-06T17:01:22.098Z,48.81
2019-05-06T17:04:08.269Z,49.39
2019-05-06T17:06:51.916Z,47.99
2019-05-06T17:09:29.768Z,48.50
2019-05-06T17:12:04.831Z,49.30
2019-05-06T17:14:35.656Z,50.04
2019-05-06T17:17:07.657Z,51.50
2019-05-06T17:19:42.221Z,50.23
2019-05-06T17:22:13.815Z,50.50
2019-05-06T17:24:48.658Z,49.53
2019-05-06T17:27:23.542Z,50.64
2019-05-06T17:30:22.607Z,50.57
2019-05-06T17:33:03.815Z,49.75
2019-05-06T17:35:37.025Z,49.93
2019-05-06T17:38:12.930Z,50.29
2019-05-06T17:40:43.381Z,50.55
2019-05-06T17:43:15.439Z,54.41
2019-05-06T17:46:01.767Z,55.17
2019-05-06T17:48:49.372Z,55.82
2019-05-06T17:51:42.590Z,53.08
2019-05-06T17:54:38.285Z,51.98
2019-05-06T17:57:15.614Z,52.82
2019-05-06T17:59:59.101Z,52.44
2019-05-06T18:02:29.800Z,54.35
2019-05-06T18:05:05.270Z,54.50
2019-05-06T18:07:37.195Z,55.22
2019-05-06T18:10:09.282Z,57.15
2019-05-06T18:12:42.422Z,55.57
2019-05-06T18:15:15.896Z,56.71
2019-05-06T18:17:47.322Z,58.24
2019-05-06T18:20:22.392Z,58.56
2019-05-06T18:22:57.646Z,59.59
2019-05-06T18:25:29.088Z,59.52
2019-05-06T18:27:59.865Z,60.77
2019-05-06T18:30:42.940Z,60.71
2019-05-06T18:33:15.056Z,61.66
2019-05-06T18:35:47.038Z,61.35
2019-05-06T18:38:27.096Z,62.34
2019-05-06T18:41:15.435Z,62.34
2019-05-06T18:43:43.886Z,61.75
2019-05-06T18:46:26.104Z,64.29
2019-05-06T18:48:59.660Z,65.29
2019-05-06T18:51:38.103Z,66.47
2019-05-06T18:54:12.905Z,65.03
2019-05-06T18:56:52.201Z,65.67
2019-05-06T18:59:26.103Z,67.36
2019-05-06T19:02:01.941Z,68.04
2019-05-06T19:04:43.275Z,67.75
2019-05-06T19:07:17.245Z,69.40
2019-05-06T19:10:10.384Z,69.40
2019-05-06T19:12:46.154Z,69.20
2019-05-06T19:15:16.566Z,69.55
2019-05-06T19:17:52.489Z,70.00
2019-05-06T19:20:24.533Z,70.74
2019-05-06T19:22:58.704Z,71.65
2019-05-06T19:25:29.198Z,71.44
2019-05-06T19:28:03.098Z,72.95
2019-05-06T19:30:35.171Z,74.00
2019-05-06T19:33:08.784Z,73.87
2019-05-06T19:35:42.717Z,74.74
2019-05-06T19:38:24.316Z,74.38
2019-05-06T19:40:52.156Z,74.99
2019-05-06T19:43:22.242Z,75.14
2019-05-06T19:45:53.235Z,75.04
2019-05-06T19:48:27.076Z,74.76
2019-05-06T19:51:00.105Z,74.29
2019-05-06T19:53:32.343Z,74.09
2019-05-06T19:56:08.993Z,74.25
2019-05-06T19:58:40.328Z,74.29
2019-05-06T20:01:22.871Z,74.32
2019-05-06T20:03:53.880Z,75.30
2019-05-06T20:06:57.177Z,74.05
2019-05-06T20:10:13.210Z,76.44
2019-05-06T20:12:59.474Z,78.33
2019-05-06T20:15:42.948Z,78.62
2019-05-06T20:18:21.651Z,78.76
2019-05-06T20:20:47.361Z,78.92
2019-05-06T20:23:32.806Z,79.16
2019-05-06T20:26:04.665Z,79.25
2019-05-06T20:28:37.997Z,80.24
2019-05-06T20:31:09.646Z,80.83
2019-05-06T20:33:53.650Z,80.93
2019-05-06T20:36:33.276Z,80.54
2019-05-06T20:39:05.629Z,81.17
2019-05-06T20:41:42.682Z,80.78
2019-05-06T20:44:13.473Z,80.91
2019-05-06T20:46:52.712Z,81.41
2019-05-06T20:49:28.304Z,81.42
2019-05-06T20:51:58.950Z,82.18
2019-05-06T20:54:30.009Z,81.49
2019-05-06T20:57:02.545Z,81.71
2019-05-06T20:59:34.548Z,80.64
2019-05-06T21:02:05.041Z,80.93
2019-05-06T21:04:35.847Z,80.59
2019-05-06T21:07:06.297Z,81.56
2019-05-06T21:09:36.705Z,81.82
2019-05-06T21:12:21.904Z,82.53
2019-05-06T21:14:54.213Z,83.13
2019-05-06T21:17:26.915Z,82.81
2019-05-06T21:19:58.712Z,82.61
2019-05-06T21:22:29.239Z,82.46
2019-05-06T21:25:02.241Z,82.12
2019-05-06T21:27:35.226Z,81.19
2019-05-06T21:30:09.289Z,81.15
2019-05-06T21:32:42.850Z,80.75
2019-05-06T21:35:13.286Z,80.01
2019-05-06T21:37:44.919Z,81.98
2019-05-06T21:40:16.772Z,81.96
2019-05-06T21:42:49.080Z,82.64
2019-05-06T21:45:22.145Z,83.07
2019-05-06T21:47:53.133Z,83.38
2019-05-06T21:50:23.927Z,83.33
2019-05-06T21:52:58.358Z,83.74
2019-05-06T21:55:32.455Z,83.07
2019-05-06T21:58:03.095Z,83.17
2019-05-06T22:00:46.320Z,80.96
2019-05-06T22:03:17.080Z,80.96
2019-05-06T22:05:48.089Z,81.64
2019-05-06T22:08:25.805Z,82.39
2019-05-06T22:10:56.216Z,83.32
2019-05-06T22:13:29.193Z,83.31
2019-05-06T22:16:02.302Z,83.81
2019-05-06T22:18:32.030Z,84.41
2019-05-06T22:21:22.721Z,84.62
2019-05-06T22:24:04.190Z,85.05
2019-05-06T22:26:34.264Z,85.19
2019-05-06T22:29:04.880Z,85.62
2019-05-06T22:31:36.871Z,85.83
2019-05-06T22:34:09.656Z,85.83
2019-05-06T22:36:40.073Z,86.26
2019-05-06T22:39:12.934Z,86.14
2019-05-06T22:41:44.054Z,86.47
2019-05-06T22:44:17.000Z,86.65
2019-05-06T22:46:49.886Z,87.32
2019-05-06T22:49:34.958Z,87.54
2019-05-06T22:52:08.750Z,87.30
2019-05-06T22:54:39.173Z,87.05
2019-05-06T22:57:11.922Z,86.50
2019-05-06T22:59:42.733Z,86.65
2019-05-06T23:02:52.714Z,86.00
2019-05-06T23:05:26.101Z,86.39
2019-05-06T23:07:56.524Z,86.09
2019-05-06T23:10:30.964Z,86.09
2019-05-06T23:13:06.921Z,86.13
2019-05-06T23:15:37.693Z,85.93
2019-05-06T23:18:14.869Z,86.71
2019-05-06T23:20:45.312Z,86.51
2019-05-06T23:23:16.015Z,87.20
2019-05-06T23:26:05.418Z,87.30
2019-05-06T23:28:35.890Z,87.44
2019-05-06T23:31:06.868Z,87.07
2019-05-06T23:33:37.316Z,87.26
2019-05-06T23:36:08.805Z,87.30
2019-05-06T23:39:15.423Z,87.15
2019-05-06T23:42:32.253Z,87.69
2019-05-06T23:45:38.258Z,87.58
2019-05-06T23:48:46.676Z,88.14
2019-05-06T23:51:53.268Z,88.11
2019-05-06T23:55:18.162Z,87.88
2019-05-06T23:57:46.931Z,87.94
